Millington, TN (38053)

9:15 AM CST on December 11, 2016 (GMT -0600)
whispering hills | | Change Station

Elev 308 ft 35.30 °N, 89.94 °W | Updated 47 minutes ago

Overcast
Overcast
43.9 °F
Feels Like 39 °F
N
7.8
Wind Variable Wind from South

Today
High -- | Low -- °F
--% Chance of Precip.
Yesterday
High -- | Low -- °F
Precip. -- in
Pressure 30.15 in
Visibility 10.0 miles
Clouds Overcast 4000 ft
Windchill 39 °F
Dew Point 21 °F
Humidity 40%
Rainfall 0.00 in
Snow Depth Not available.
6:58 AM 4:47 PM
Waxing Gibbous, 92% visible
METAR KNQA 111350Z 15009KT 10SM OVC040 07/M07 A3015
Pressure 30.15 in
Visibility 10.0 miles
Clouds Overcast 4000 ft
Windchill 39 °F
Dew Point 21 °F
Humidity 40%
Rainfall 0.00 in
Snow Depth Not available.
6:58 AM 4:47 PM
Waxing Gibbous, 92% visible
METAR KNQA 111350Z 15009KT 10SM OVC040 07/M07 A3015

10-Day Weather Forecast

Almanac

Astronomy

Dec. 11, 2016 Rise Set
Actual Time
Civil Twilight
Nautical Twilight
Astronomical Twilight
Moon
Length of Visible Light
Length of Day
Tomorrow will be .
, % of the Moon is Illuminated

Today's Extremes

State Highs State Lows

Community

WunderPhotos

Upload Photos

1,956,725 photos uploaded!

WunderBlog® & News

Nearby

Air Quality

  Air Quality AQ Index Pollutant
Not available.

Snow Depth

Station Depth Elevation

Earthquake Activity

City Distance Mag. Time & Date
Minimum magnitude displayed is 2.5.

Coastal Water Temperatures

Place Temperature

Stations

Nearby Weather Stations

Station Location Temp. Windchill Dew Point Humidity Wind Precip. Elev Updated Type
                   

Watches & Warnings

There are currently no watches in effect.